Time;durP1;ratioP1;P1;durP2;ratioP2;P2;SDS_P1;SDS_P2;PMS_P1;PMS_P2;Temp;Humidity;BMP_temperature;BMP_pressure;BME280_temperature;BME280_humidity;BME280_pressure;Samples;Min_cycle;Max_cycle;Signal;HPM_P1;HPM_P2
2021/10/28 00:14:01;;;;;;;;;;;9.70;43.10;;;;;;4318135;33;19973;-47
2021/10/28 00:16:31;;;;;;;;;;;9.70;43.10;;;;;;4342118;33;19975;-48
2021/10/28 00:19:00;;;;;;;;;;;9.70;43.00;;;;;;4343485;33;19977;-51
2021/10/28 00:21:34;;;;;;;;;;;9.70;43.00;;;;;;4343691;32;19994;-50
2021/10/28 00:24:03;;;;;;;;;;;9.70;42.90;;;;;;4349594;32;20047;-51
2021/10/28 00:26:34;;;;;;;;;;;9.70;42.90;;;;;;4359800;32;20033;-49
2021/10/28 00:29:02;;;;;;;;;;;9.60;42.90;;;;;;4328518;33;19975;-48
2021/10/28 00:31:30;;;;;;;;;;;9.60;42.80;;;;;;4328814;33;20128;-52
2021/10/28 00:33:57;;;;;;;;;;;9.60;42.60;;;;;;4329193;33;19999;-50
2021/10/28 00:36:23;;;;;;;;;;;9.60;42.50;;;;;;4328734;33;20408;-48
2021/10/28 00:38:49;;;;;;;;;;;9.60;42.50;;;;;;4328457;33;19983;-48
2021/10/28 00:41:18;;;;;;;;;;;9.60;42.30;;;;;;4328495;33;19975;-47
2021/10/28 00:43:46;;;;;;;;;;;9.60;42.40;;;;;;4328258;33;20454;-49
2021/10/28 00:46:16;;;;;;;;;;;9.70;42.70;;;;;;4328260;33;19975;-50
2021/10/28 00:48:44;;;;;;;;;;;9.70;42.60;;;;;;4328249;33;19971;-49
2021/10/28 00:51:10;;;;;;;;;;;9.70;42.60;;;;;;4328395;33;19969;-49
2021/10/28 00:53:36;;;;;;;;;;;9.70;42.60;;;;;;4328472;33;20062;-49
2021/10/28 00:56:04;;;;;;;;;;;9.80;42.70;;;;;;4328235;33;20408;-48
2021/10/28 00:58:30;;;;;;;;;;;9.80;42.70;;;;;;4328557;33;20517;-47
2021/10/28 01:00:56;;;;;;;;;;;9.90;42.80;;;;;;4356443;32;19986;-49
2021/10/28 01:03:23;;;;;;;;;;;9.90;42.70;;;;;;4346398;32;19970;-49
2021/10/28 01:05:49;;;;;;;;;;;10.00;42.90;;;;;;4360444;32;19963;-49
2021/10/28 01:08:18;;;;;;;;;;;10.00;42.90;;;;;;4360580;32;20009;-51
2021/10/28 01:10:46;;;;;;;;;;;10.00;42.80;;;;;;4360119;32;20055;-49
2021/10/28 01:13:14;;;;;;;;;;;10.10;42.80;;;;;;4360567;32;19993;-50
2021/10/28 01:15:41;;;;;;;;;;;10.10;42.70;;;;;;4360322;32;19993;-50
2021/10/28 01:18:10;;;;;;;;;;;10.10;42.50;;;;;;4360184;32;20377;-52
2021/10/28 01:20:38;;;;;;;;;;;10.10;42.70;;;;;;4360052;32;20419;-47
2021/10/28 01:23:05;;;;;;;;;;;10.10;42.80;;;;;;4327650;33;19979;-49
2021/10/28 01:25:32;;;;;;;;;;;10.20;42.90;;;;;;4328506;33;19966;-48
2021/10/28 01:27:59;;;;;;;;;;;10.20;42.80;;;;;;4313303;33;19982;-51
2021/10/28 01:30:25;;;;;;;;;;;10.20;43.00;;;;;;4313007;33;19990;-49
2021/10/28 01:32:52;;;;;;;;;;;10.20;43.20;;;;;;4301325;33;19972;-49
2021/10/28 01:35:19;;;;;;;;;;;10.20;42.90;;;;;;4301114;33;19973;-49
2021/10/28 01:37:45;;;;;;;;;;;10.20;42.60;;;;;;4297418;33;19987;-48
2021/10/28 01:40:12;;;;;;;;;;;10.20;42.90;;;;;;4298721;33;19968;-49
2021/10/28 01:42:48;;;;;;;;;;;10.30;43.30;;;;;;4286762;33;20014;-49
2021/10/28 01:45:14;;;;;;;;;;;10.30;43.50;;;;;;4301175;33;19995;-48
2021/10/28 01:47:41;;;;;;;;;;;10.30;43.60;;;;;;4312922;33;20431;-40
2021/10/28 01:50:08;;;;;;;;;;;10.30;43.90;;;;;;4313008;33;19993;-48
2021/10/28 01:52:38;;;;;;;;;;;10.30;44.10;;;;;;4313042;33;20005;-48
2021/10/28 01:55:09;;;;;;;;;;;10.20;44.00;;;;;;4312614;33;19968;-50
2021/10/28 01:57:35;;;;;;;;;;;10.20;44.20;;;;;;4300958;33;20071;-48
2021/10/28 02:00:04;;;;;;;;;;;10.10;44.20;;;;;;4300215;33;21164;-49
2021/10/28 02:02:30;;;;;;;;;;;10.10;44.40;;;;;;4288777;33;20502;-48
2021/10/28 02:04:56;;;;;;;;;;;10.00;44.50;;;;;;4317123;33;19985;-50
2021/10/28 02:07:22;;;;;;;;;;;10.00;44.80;;;;;;4327508;33;19987;-49
2021/10/28 02:09:49;;;;;;;;;;;10.00;44.80;;;;;;4314951;33;19959;-50
2021/10/28 02:12:15;;;;;;;;;;;10.00;44.80;;;;;;4327348;33;19987;-46
2021/10/28 02:14:41;;;;;;;;;;;10.00;45.00;;;;;;4336667;32;20387;-48
2021/10/28 02:17:07;;;;;;;;;;;10.00;44.60;;;;;;4359788;32;19992;-48
2021/10/28 02:19:33;;;;;;;;;;;10.00;44.20;;;;;;4359351;32;20002;-49
2021/10/28 02:21:59;;;;;;;;;;;9.90;43.50;;;;;;4358928;32;19969;-50
2021/10/28 02:24:29;;;;;;;;;;;9.90;43.50;;;;;;4359193;32;20060;-50
2021/10/28 02:26:55;;;;;;;;;;;10.00;43.50;;;;;;4358953;32;19966;-49
2021/10/28 02:29:21;;;;;;;;;;;10.00;43.70;;;;;;4359282;32;19973;-48
2021/10/28 02:31:48;;;;;;;;;;;10.00;43.70;;;;;;4359305;32;19982;-49
2021/10/28 02:34:14;;;;;;;;;;;10.00;43.60;;;;;;4359188;32;20030;-43
2021/10/28 02:36:40;;;;;;;;;;;10.10;43.60;;;;;;4345393;32;19974;-48
2021/10/28 02:39:08;;;;;;;;;;;10.10;43.60;;;;;;4358726;32;19966;-47
2021/10/28 02:41:35;;;;;;;;;;;10.10;43.30;;;;;;4358983;32;19998;-49
2021/10/28 02:44:01;;;;;;;;;;;10.10;43.30;;;;;;4358911;32;19981;-47
2021/10/28 02:46:27;;;;;;;;;;;10.20;43.40;;;;;;4369507;32;20441;-47
2021/10/28 02:48:54;;;;;;;;;;;10.20;43.40;;;;;;4359656;32;19972;-49
2021/10/28 02:51:20;;;;;;;;;;;10.20;43.30;;;;;;4373750;32;20042;-49
2021/10/28 02:53:46;;;;;;;;;;;10.20;43.50;;;;;;4373512;32;19969;-49
2021/10/28 02:56:13;;;;;;;;;;;10.20;43.60;;;;;;4374280;32;19969;-50
2021/10/28 02:58:39;;;;;;;;;;;10.20;43.40;;;;;;4359397;32;19976;-50
2021/10/28 03:01:05;;;;;;;;;;;10.20;43.40;;;;;;4373721;32;20078;-48
2021/10/28 03:03:32;;;;;;;;;;;10.20;43.50;;;;;;4326320;33;19991;-49
2021/10/28 03:05:58;;;;;;;;;;;10.30;43.40;;;;;;4314309;33;20046;-50
2021/10/28 03:08:24;;;;;;;;;;;10.20;43.40;;;;;;4326375;33;19967;-51
2021/10/28 03:10:51;;;;;;;;;;;10.30;43.50;;;;;;4326789;33;20041;-48
2021/10/28 03:13:19;;;;;;;;;;;10.20;43.00;;;;;;4326725;33;20061;-48
2021/10/28 03:15:47;;;;;;;;;;;10.30;43.20;;;;;;4326531;33;19987;-41
2021/10/28 03:26:17;;;;;;;;;;;10.30;43.60;;;;;;4319676;33;19982;-40
2021/10/28 03:28:43;;;;;;;;;;;10.30;43.60;;;;;;4326956;33;19963;-46
2021/10/28 03:31:09;;;;;;;;;;;10.30;43.60;;;;;;4326365;33;20512;-48
2021/10/28 03:33:37;;;;;;;;;;;10.30;43.60;;;;;;4325424;33;20004;-47
2021/10/28 03:36:07;;;;;;;;;;;10.30;43.90;;;;;;4325137;33;19979;-51
2021/10/28 03:38:48;;;;;;;;;;;10.40;44.10;;;;;;4326268;33;19967;-48
2021/10/28 03:41:49;;;;;;;;;;;10.30;43.90;;;;;;4355319;32;20078;-46
2021/10/28 04:01:06;;;;;;;;;;;10.40;43.50;;;;;;4358287;32;19955;-47
2021/10/28 04:03:41;;;;;;;;;;;10.40;43.50;;;;;;4355300;32;20601;-46
2021/10/28 04:16:25;;;;;;;;;;;10.30;43.50;;;;;;4360869;32;20426;-44
2021/10/28 04:19:47;;;;;;;;;;;10.30;43.80;;;;;;4360932;32;19975;-46
2021/10/28 04:30:23;;;;;;;;;;;10.40;44.30;;;;;;4360581;32;20098;-52
2021/10/28 04:32:50;;;;;;;;;;;10.40;44.30;;;;;;4361304;32;19966;-47
2021/10/28 04:35:16;;;;;;;;;;;10.40;44.30;;;;;;4347374;32;19971;-46
2021/10/28 04:37:44;;;;;;;;;;;10.40;44.20;;;;;;4360676;32;20402;-46
2021/10/28 04:40:11;;;;;;;;;;;10.40;44.40;;;;;;4360614;32;19966;-46
2021/10/28 04:42:37;;;;;;;;;;;10.40;44.40;;;;;;4360618;32;20091;-45
2021/10/28 04:45:04;;;;;;;;;;;10.40;44.20;;;;;;4361932;32;19991;-45
2021/10/28 04:47:30;;;;;;;;;;;10.40;44.20;;;;;;4375604;32;19958;-48
2021/10/28 04:49:56;;;;;;;;;;;10.40;44.20;;;;;;4361391;32;20457;-43
2021/10/28 04:52:23;;;;;;;;;;;10.40;44.00;;;;;;4375472;32;19974;-44
2021/10/28 04:54:50;;;;;;;;;;;10.40;43.90;;;;;;4375832;32;19985;-43
2021/10/28 04:57:16;;;;;;;;;;;10.50;44.10;;;;;;4375128;32;20666;-45
2021/10/28 04:59:42;;;;;;;;;;;10.60;44.10;;;;;;4361429;32;20028;-46
2021/10/28 05:02:09;;;;;;;;;;;10.70;43.70;;;;;;4360965;32;19972;-45
2021/10/28 05:04:35;;;;;;;;;;;10.70;43.50;;;;;;4374992;32;20001;-45
2021/10/28 05:07:02;;;;;;;;;;;10.90;43.60;;;;;;4375008;32;19962;-45
2021/10/28 05:09:33;;;;;;;;;;;11.00;43.00;;;;;;4375160;32;19970;-44
2021/10/28 05:11:59;;;;;;;;;;;11.10;42.90;;;;;;4374804;32;19962;-46
2021/10/28 05:14:26;;;;;;;;;;;11.20;42.80;;;;;;4375553;32;19969;-44
2021/10/28 05:16:57;;;;;;;;;;;11.20;42.70;;;;;;4375414;32;20513;-43
2021/10/28 05:19:24;;;;;;;;;;;11.20;42.50;;;;;;4375040;32;20037;-39
2021/10/28 05:21:50;;;;;;;;;;;11.20;42.50;;;;;;4375812;32;19958;-47
2021/10/28 05:24:16;;;;;;;;;;;11.20;42.40;;;;;;4374751;32;19974;-49
2021/10/28 05:26:43;;;;;;;;;;;11.20;42.20;;;;;;4360694;32;19962;-43
2021/10/28 05:29:12;;;;;;;;;;;11.20;42.30;;;;;;4374563;32;19969;-44
2021/10/28 05:31:38;;;;;;;;;;;11.10;42.10;;;;;;4374576;32;19997;-47
2021/10/28 05:34:04;;;;;;;;;;;11.10;42.20;;;;;;4374629;32;20367;-46
2021/10/28 05:36:30;;;;;;;;;;;11.10;42.50;;;;;;4374620;32;20003;-45
2021/10/28 05:38:57;;;;;;;;;;;11.10;42.60;;;;;;4374565;32;20090;-45
2021/10/28 05:41:23;;;;;;;;;;;11.00;42.60;;;;;;4374968;32;19963;-45
2021/10/28 05:43:49;;;;;;;;;;;11.00;42.50;;;;;;4374896;32;19981;-47
2021/10/28 05:46:15;;;;;;;;;;;11.00;42.50;;;;;;4365260;32;19981;-45
2021/10/28 05:48:42;;;;;;;;;;;11.00;42.90;;;;;;4359422;32;20374;-46
2021/10/28 05:51:08;;;;;;;;;;;11.00;43.00;;;;;;4359470;32;19959;-45
2021/10/28 05:53:34;;;;;;;;;;;11.10;43.10;;;;;;4359283;32;20059;-45
2021/10/28 05:56:00;;;;;;;;;;;11.10;43.10;;;;;;4359119;32;19962;-44
2021/10/28 05:58:26;;;;;;;;;;;11.20;42.90;;;;;;4359426;32;19981;-45
2021/10/28 06:00:53;;;;;;;;;;;11.30;42.80;;;;;;4359255;32;19963;-45
2021/10/28 06:03:19;;;;;;;;;;;11.40;42.90;;;;;;4359568;32;20053;-43
2021/10/28 06:05:45;;;;;;;;;;;11.50;42.80;;;;;;4358790;32;19967;-45
2021/10/28 06:08:11;;;;;;;;;;;11.60;42.30;;;;;;4359355;32;19965;-46
2021/10/28 06:10:37;;;;;;;;;;;11.60;42.30;;;;;;4358911;32;20500;-45
2021/10/28 06:13:06;;;;;;;;;;;11.70;42.40;;;;;;4359497;32;19971;-44
2021/10/28 06:15:35;;;;;;;;;;;11.80;42.10;;;;;;4358653;32;19973;-44
2021/10/28 06:20:43;;;;;;;;;;;12.00;42.20;;;;;;4346970;32;19954;-45
2021/10/28 06:23:10;;;;;;;;;;;12.10;42.00;;;;;;4358804;32;20050;-45
2021/10/28 06:25:36;;;;;;;;;;;12.30;42.20;;;;;;4359513;32;19986;-43
2021/10/28 06:28:03;;;;;;;;;;;12.50;41.80;;;;;;4359063;32;19962;-44
2021/10/28 06:30:29;;;;;;;;;;;12.60;41.10;;;;;;4358919;32;20460;-45
2021/10/28 06:32:58;;;;;;;;;;;12.70;40.80;;;;;;4358808;32;19982;-44
2021/10/28 06:35:25;;;;;;;;;;;12.90;40.60;;;;;;4359361;32;19997;-44
2021/10/28 06:37:52;;;;;;;;;;;13.00;40.20;;;;;;4358959;32;20000;-43
2021/10/28 06:40:20;;;;;;;;;;;13.00;39.70;;;;;;4359051;32;20006;-43
2021/10/28 06:42:47;;;;;;;;;;;13.10;39.80;;;;;;4358997;32;19962;-44
2021/10/28 06:45:13;;;;;;;;;;;13.00;39.60;;;;;;4361078;32;19973;-44
2021/10/28 06:47:40;;;;;;;;;;;13.10;39.70;;;;;;4373374;32;19973;-43
2021/10/28 06:50:10;;;;;;;;;;;13.10;39.90;;;;;;4373213;32;19962;-45
2021/10/28 06:53:21;;;;;;;;;;;13.10;40.20;;;;;;4373590;32;20480;-43
2021/10/28 07:02:14;;;;;;;;;;;13.10;40.30;;;;;;4373878;32;20444;-43
2021/10/28 07:03:29;;;;;;;;;;;13.20;40.50;;;;;;4361854;32;20016;-43
2021/10/28 07:06:01;;;;;;;;;;;13.30;40.50;;;;;;4374200;32;19969;-43
2021/10/28 07:08:27;;;;;;;;;;;13.40;40.40;;;;;;4359979;32;19963;-44
2021/10/28 07:10:56;;;;;;;;;;;13.50;40.00;;;;;;4373007;32;19997;-42
2021/10/28 07:13:29;;;;;;;;;;;13.60;39.80;;;;;;4373668;32;20072;-42
2021/10/28 07:16:00;;;;;;;;;;;13.60;39.60;;;;;;4373668;32;20073;-42
2021/10/28 07:18:39;;;;;;;;;;;13.60;39.90;;;;;;4373489;32;19982;-42
2021/10/28 07:29:53;;;;;;;;;;;13.70;40.10;;;;;;4373228;32;19959;-43
2021/10/28 07:34:26;;;;;;;;;;;13.80;40.10;;;;;;4373374;32;20422;-44
2021/10/28 08:05:07;;;;;;;;;;;13.80;39.30;;;;;;4361524;32;19977;-43
2021/10/28 08:19:38;;;;;;;;;;;14.30;39.40;;;;;;4329875;32;20035;-44
2021/10/28 08:21:47;;;;;;;;;;;14.60;39.00;;;;;;4353891;32;20476;-44
2021/10/28 08:24:33;;;;;;;;;;;14.80;38.70;;;;;;4360426;32;20403;-41
2021/10/28 08:29:52;;;;;;;;;;;15.30;37.70;;;;;;4360547;32;19994;-44
2021/10/28 08:32:18;;;;;;;;;;;15.50;37.50;;;;;;4360843;32;20013;-42
2021/10/28 08:34:45;;;;;;;;;;;15.70;37.10;;;;;;4360524;32;19970;-44
2021/10/28 08:37:18;;;;;;;;;;;15.90;36.90;;;;;;4328174;33;19983;-44
2021/10/28 08:39:49;;;;;;;;;;;16.10;36.60;;;;;;4328700;33;20038;-44
2021/10/28 08:42:17;;;;;;;;;;;16.30;36.00;;;;;;4328716;33;20066;-45
2021/10/28 08:44:46;;;;;;;;;;;16.50;35.90;;;;;;4328279;33;20114;-44
2021/10/28 08:47:12;;;;;;;;;;;16.70;35.40;;;;;;4327865;33;19970;-44
2021/10/28 08:49:46;;;;;;;;;;;16.90;35.50;;;;;;4315754;33;20443;-44
2021/10/28 08:55:13;;;;;;;;;;;17.00;34.90;;;;;;4328257;33;19971;-44
2021/10/28 09:24:49;;;;;;;;;;;17.60;34.20;;;;;;4312827;33;19968;-43
2021/10/28 09:27:41;;;;;;;;;;;17.40;34.10;;;;;;4303423;33;19972;-43
2021/10/28 09:32:36;;;;;;;;;;;17.20;34.90;;;;;;4313073;33;20408;-42
2021/10/28 09:52:03;;;;;;;;;;;16.20;36.50;;;;;;4298047;33;20687;-43
2021/10/28 09:54:34;;;;;;;;;;;16.20;36.60;;;;;;4297680;33;19983;-42
2021/10/28 09:59:51;;;;;;;;;;;16.20;36.90;;;;;;4286998;33;20428;-42
2021/10/28 10:05:17;;;;;;;;;;;16.10;37.10;;;;;;4297996;33;19968;-43
2021/10/28 10:07:44;;;;;;;;;;;16.20;37.10;;;;;;4297713;33;20453;-42
2021/10/28 10:10:10;;;;;;;;;;;16.20;37.20;;;;;;4297854;33;20001;-43
2021/10/28 10:12:37;;;;;;;;;;;16.20;37.10;;;;;;4300642;32;19975;-46
2021/10/28 10:15:04;;;;;;;;;;;16.30;36.90;;;;;;4373490;32;20056;-43
2021/10/28 10:18:54;;;;;;;;;;;16.40;36.90;;;;;;3855007;37;19950;-42
2021/10/28 10:24:22;;;;;;;;;;;16.30;36.50;;;;;;4404180;32;19957;-41
2021/10/28 11:21:42;;;;;;;;;;;16.00;36.60;;;;;;4385373;32;20424;-43
2021/10/28 11:30:00;;;;;;;;;;;16.00;37.10;;;;;;4380361;32;19966;-42
2021/10/28 12:17:31;;;;;;;;;;;16.30;38.30;;;;;;4374866;32;19969;-43
2021/10/28 12:23:34;;;;;;;;;;;16.40;38.70;;;;;;4375022;32;19977;-42
2021/10/28 12:43:25;;;;;;;;;;;16.40;38.90;;;;;;4374678;32;20055;-42
2021/10/28 12:46:00;;;;;;;;;;;15.90;39.60;;;;;;4374143;32;19998;-43
2021/10/28 12:51:36;;;;;;;;;;;15.60;38.60;;;;;;4373793;32;19966;-42
2021/10/28 12:54:44;;;;;;;;;;;15.50;38.60;;;;;;4374094;32;19964;-43
2021/10/28 13:37:47;;;;;;;;;;;14.00;41.20;;;;;;4388776;32;19965;-44
2021/10/28 14:35:50;;;;;;;;;;;13.40;43.60;;;;;;4311595;33;20015;-44
2021/10/28 14:38:19;;;;;;;;;;;13.30;43.60;;;;;;4311213;33;20427;-44
2021/10/28 15:29:53;;;;;;;;;;;12.30;48.10;;;;;;4335684;32;20060;-44
2021/10/28 15:32:53;;;;;;;;;;;12.30;48.30;;;;;;4390560;32;19985;-43
2021/10/28 15:38:15;;;;;;;;;;;12.20;48.60;;;;;;4390244;32;19978;-43
2021/10/28 16:24:04;;;;;;;;;;;12.00;50.40;;;;;;4389729;32;20489;-47
2021/10/28 16:26:33;;;;;;;;;;;12.00;50.40;;;;;;4389959;32;19984;-43
2021/10/28 16:29:02;;;;;;;;;;;12.00;50.40;;;;;;4364278;32;20436;-44
2021/10/28 16:31:28;;;;;;;;;;;12.00;50.10;;;;;;4389814;32;20413;-43
2021/10/28 16:33:54;;;;;;;;;;;12.00;50.00;;;;;;4389352;32;19969;-42
2021/10/28 16:36:24;;;;;;;;;;;12.00;50.00;;;;;;4375479;32;20467;-42
2021/10/28 16:38:51;;;;;;;;;;;12.00;50.00;;;;;;4389418;32;19966;-43
2021/10/28 16:41:17;;;;;;;;;;;12.00;50.00;;;;;;4389568;32;20039;-42
2021/10/28 16:43:43;;;;;;;;;;;12.00;49.90;;;;;;4389303;32;20429;-43
2021/10/28 16:46:10;;;;;;;;;;;11.90;49.90;;;;;;4380561;32;19959;-43
2021/10/28 16:48:36;;;;;;;;;;;11.90;49.90;;;;;;4360909;32;20134;-43
2021/10/28 16:51:03;;;;;;;;;;;11.90;49.90;;;;;;4374130;32;20381;-41
2021/10/28 16:53:30;;;;;;;;;;;11.90;50.00;;;;;;4374465;32;20433;-43
2021/10/28 16:55:56;;;;;;;;;;;11.90;50.00;;;;;;4360283;32;19957;-43
2021/10/28 16:58:23;;;;;;;;;;;11.90;50.00;;;;;;4374171;32;20449;-44
2021/10/28 17:00:49;;;;;;;;;;;11.90;50.00;;;;;;4374036;32;20054;-44
2021/10/28 17:03:15;;;;;;;;;;;11.90;50.00;;;;;;4374143;32;20366;-44
2021/10/28 17:05:43;;;;;;;;;;;11.80;49.90;;;;;;4374129;32;19970;-44
2021/10/28 17:08:10;;;;;;;;;;;11.80;50.00;;;;;;4374098;32;20423;-42
2021/10/28 17:10:36;;;;;;;;;;;11.80;50.10;;;;;;4360385;32;19968;-49
2021/10/28 17:13:02;;;;;;;;;;;11.80;50.20;;;;;;4359974;32;20022;-43
2021/10/28 17:15:28;;;;;;;;;;;11.70;50.20;;;;;;4373981;32;20069;-44
2021/10/28 17:17:55;;;;;;;;;;;11.70;50.20;;;;;;4373545;32;20144;-44
2021/10/28 17:20:21;;;;;;;;;;;11.70;50.20;;;;;;4373324;32;20395;-44
2021/10/28 17:22:49;;;;;;;;;;;11.70;50.20;;;;;;4374040;32;19961;-46
2021/10/28 17:25:20;;;;;;;;;;;11.70;50.20;;;;;;4373748;32;20407;-43
2021/10/28 17:27:48;;;;;;;;;;;11.80;50.20;;;;;;4372987;32;19973;-45
2021/10/28 17:30:14;;;;;;;;;;;11.80;50.20;;;;;;4372343;32;20049;-45
2021/10/28 17:32:42;;;;;;;;;;;11.80;50.20;;;;;;4374004;32;19977;-44
2021/10/28 17:35:09;;;;;;;;;;;11.80;50.20;;;;;;4359799;32;19966;-44
2021/10/28 17:37:35;;;;;;;;;;;11.90;50.20;;;;;;4359494;32;19961;-39
2021/10/28 17:40:01;;;;;;;;;;;11.90;50.20;;;;;;4372338;32;20047;-44
2021/10/28 17:42:28;;;;;;;;;;;11.90;50.20;;;;;;4373840;32;19986;-43
2021/10/28 17:44:57;;;;;;;;;;;11.90;50.10;;;;;;4359563;32;20413;-44
2021/10/28 17:47:24;;;;;;;;;;;11.90;50.10;;;;;;4373510;32;19990;-44
2021/10/28 17:49:51;;;;;;;;;;;11.90;50.10;;;;;;4372165;32;20399;-43
2021/10/28 17:52:18;;;;;;;;;;;11.90;50.10;;;;;;4373580;32;20399;-44
2021/10/28 17:54:45;;;;;;;;;;;11.90;50.10;;;;;;4373564;32;20077;-43
2021/10/28 17:57:12;;;;;;;;;;;11.90;50.20;;;;;;4373545;32;19977;-43
2021/10/28 17:59:38;;;;;;;;;;;11.90;50.10;;;;;;4373953;32;19973;-44
2021/10/28 18:02:04;;;;;;;;;;;11.90;50.00;;;;;;4373731;32;19978;-44
2021/10/28 18:04:31;;;;;;;;;;;11.90;50.10;;;;;;4373569;32;19967;-43
2021/10/28 18:06:58;;;;;;;;;;;11.90;50.00;;;;;;4373383;32;19994;-43
2021/10/28 18:09:24;;;;;;;;;;;12.00;50.00;;;;;;4373591;32;19996;-42
2021/10/28 18:11:55;;;;;;;;;;;11.90;50.00;;;;;;4371911;32;19970;-42
2021/10/28 18:14:23;;;;;;;;;;;12.00;50.10;;;;;;4373725;32;19997;-45
2021/10/28 18:16:50;;;;;;;;;;;12.00;50.00;;;;;;4375351;32;20055;-43
2021/10/28 18:19:16;;;;;;;;;;;12.00;50.00;;;;;;4388885;32;20053;-44
2021/10/28 18:21:45;;;;;;;;;;;12.00;49.90;;;;;;4388074;32;19961;-43
2021/10/28 18:24:11;;;;;;;;;;;12.10;49.90;;;;;;4388269;32;19973;-42
2021/10/28 18:26:37;;;;;;;;;;;12.10;49.90;;;;;;4388682;32;19964;-42
2021/10/28 18:29:05;;;;;;;;;;;12.10;50.00;;;;;;4388586;32;19954;-43
2021/10/28 18:31:31;;;;;;;;;;;12.10;49.90;;;;;;4387901;32;20425;-45
2021/10/28 18:33:58;;;;;;;;;;;12.10;49.80;;;;;;4374137;32;20055;-43
2021/10/28 18:36:26;;;;;;;;;;;12.10;49.80;;;;;;4388373;32;20022;-42
2021/10/28 18:38:52;;;;;;;;;;;12.10;49.70;;;;;;4388590;32;20397;-44
2021/10/28 18:41:18;;;;;;;;;;;12.10;49.70;;;;;;4377541;32;20116;-41
2021/10/28 18:43:46;;;;;;;;;;;12.10;49.60;;;;;;4391346;32;21200;-43
2021/10/28 18:46:21;;;;;;;;;;;12.10;49.50;;;;;;4382536;32;20111;-41
2021/10/28 18:49:00;;;;;;;;;;;12.10;49.50;;;;;;4376243;32;19990;-42
2021/10/28 18:51:26;;;;;;;;;;;12.10;49.50;;;;;;4376132;32;19966;-43
2021/10/28 18:53:53;;;;;;;;;;;12.10;49.40;;;;;;4376207;32;20534;-43
2021/10/28 18:56:19;;;;;;;;;;;12.10;49.40;;;;;;4375865;32;20454;-44
2021/10/28 18:58:46;;;;;;;;;;;12.10;49.40;;;;;;4375908;32;19974;-43
2021/10/28 19:01:14;;;;;;;;;;;12.00;49.40;;;;;;4374718;32;20061;-42
2021/10/28 19:03:41;;;;;;;;;;;12.00;49.50;;;;;;4362294;32;20134;-40
2021/10/28 19:06:08;;;;;;;;;;;12.10;49.50;;;;;;4375869;32;19986;-44
2021/10/28 19:08:37;;;;;;;;;;;12.10;49.50;;;;;;4376331;32;20054;-45
2021/10/28 19:11:04;;;;;;;;;;;12.10;49.50;;;;;;4362589;32;19966;-44
2021/10/28 19:13:32;;;;;;;;;;;12.20;49.50;;;;;;4361956;32;20079;-43
2021/10/28 19:15:58;;;;;;;;;;;12.20;49.30;;;;;;4375815;32;19962;-44
2021/10/28 19:18:24;;;;;;;;;;;12.20;49.10;;;;;;4375695;32;19966;-42
2021/10/28 19:20:51;;;;;;;;;;;12.30;49.10;;;;;;4375683;32;19992;-42
2021/10/28 19:23:17;;;;;;;;;;;12.30;49.00;;;;;;4376050;32;19973;-42
2021/10/28 19:25:44;;;;;;;;;;;12.30;48.90;;;;;;4375600;32;19965;-42
2021/10/28 19:28:10;;;;;;;;;;;12.30;48.80;;;;;;4375942;32;20004;-42
2021/10/28 19:30:42;;;;;;;;;;;12.30;48.80;;;;;;4375675;32;19978;-43
2021/10/28 19:33:14;;;;;;;;;;;12.30;48.70;;;;;;4375965;32;20074;-43
2021/10/28 19:35:44;;;;;;;;;;;12.20;48.70;;;;;;4376094;32;19977;-42
2021/10/28 19:40:59;;;;;;;;;;;12.30;48.80;;;;;;4375720;32;20414;-43
2021/10/28 19:46:10;;;;;;;;;;;12.20;48.80;;;;;;4375758;32;19986;-43
2021/10/28 19:48:39;;;;;;;;;;;12.20;48.90;;;;;;4375943;32;19970;-43
2021/10/28 19:51:06;;;;;;;;;;;12.20;49.00;;;;;;4374859;32;20390;-44
2021/10/28 19:53:32;;;;;;;;;;;12.20;49.00;;;;;;4375677;32;20002;-44
2021/10/28 19:56:08;;;;;;;;;;;12.30;49.00;;;;;;4375288;32;20130;-43
2021/10/28 19:58:39;;;;;;;;;;;12.20;49.00;;;;;;4375187;32;19977;-43
2021/10/28 20:01:28;;;;;;;;;;;12.30;49.00;;;;;;4375214;32;19978;-43
2021/10/28 20:04:14;;;;;;;;;;;12.30;49.10;;;;;;4374980;32;19957;-42
2021/10/28 20:06:56;;;;;;;;;;;12.20;49.00;;;;;;4375749;32;20389;-43
2021/10/28 20:14:58;;;;;;;;;;;12.10;49.60;;;;;;4375076;32;19961;-42
2021/10/28 20:22:38;;;;;;;;;;;12.00;49.90;;;;;;4390195;32;19973;-42
2021/10/28 20:25:06;;;;;;;;;;;11.90;49.90;;;;;;4389810;32;20057;-42
2021/10/28 20:27:32;;;;;;;;;;;12.00;50.10;;;;;;4389726;32;19961;-43
2021/10/28 20:29:58;;;;;;;;;;;12.00;50.10;;;;;;4389918;32;19961;-42
2021/10/28 20:32:25;;;;;;;;;;;12.00;50.20;;;;;;4390005;32;20398;-42
2021/10/28 20:35:11;;;;;;;;;;;12.00;50.20;;;;;;4389732;32;20050;-42
2021/10/28 20:37:38;;;;;;;;;;;12.00;50.40;;;;;;4389733;32;20046;-43
2021/10/28 20:40:05;;;;;;;;;;;12.00;50.60;;;;;;4342365;33;19963;-41
2021/10/28 20:42:39;;;;;;;;;;;12.00;50.70;;;;;;4342141;33;20547;-42
2021/10/28 20:45:12;;;;;;;;;;;12.00;50.90;;;;;;4327596;33;20001;-42
2021/10/28 20:47:40;;;;;;;;;;;11.90;51.00;;;;;;4327544;33;20006;-43
2021/10/28 20:50:08;;;;;;;;;;;11.90;51.30;;;;;;4327779;33;20010;-42
2021/10/28 20:52:34;;;;;;;;;;;11.90;51.40;;;;;;4327884;33;19967;-42
2021/10/28 20:55:01;;;;;;;;;;;11.90;51.40;;;;;;4327779;33;20021;-41
2021/10/28 20:57:27;;;;;;;;;;;11.90;51.50;;;;;;4327582;33;19964;-42
2021/10/28 20:59:53;;;;;;;;;;;12.00;51.60;;;;;;4327196;33;20052;-47
2021/10/28 21:02:20;;;;;;;;;;;12.00;51.70;;;;;;4327043;33;19971;-41
2021/10/28 21:04:46;;;;;;;;;;;12.00;51.90;;;;;;4327852;33;19977;-42
2021/10/28 21:07:12;;;;;;;;;;;12.00;51.90;;;;;;4327252;33;19983;-42
2021/10/28 21:09:38;;;;;;;;;;;11.90;51.90;;;;;;4315127;33;19986;-42
2021/10/28 21:12:05;;;;;;;;;;;11.90;51.90;;;;;;4354513;32;20474;-42
2021/10/28 21:14:31;;;;;;;;;;;11.90;52.00;;;;;;4326654;33;20484;-42
2021/10/28 21:16:58;;;;;;;;;;;11.90;52.20;;;;;;4327030;33;19974;-41
2021/10/28 21:19:24;;;;;;;;;;;11.90;53.00;;;;;;4327268;33;20506;-41
2021/10/28 21:21:53;;;;;;;;;;;11.90;52.40;;;;;;4326939;33;20361;-40
2021/10/28 21:24:20;;;;;;;;;;;11.90;52.40;;;;;;4315643;33;19967;-41
2021/10/28 21:26:47;;;;;;;;;;;11.90;52.40;;;;;;4327342;33;20149;-39
2021/10/28 21:29:13;;;;;;;;;;;11.90;52.60;;;;;;4326734;33;19979;-39
2021/10/28 21:31:39;;;;;;;;;;;11.90;52.70;;;;;;4327195;33;19983;-39
2021/10/28 21:34:05;;;;;;;;;;;11.90;52.70;;;;;;4326857;33;20049;-39
2021/10/28 21:36:31;;;;;;;;;;;11.90;52.80;;;;;;4326974;33;20427;-40
2021/10/28 21:38:58;;;;;;;;;;;11.90;52.80;;;;;;4327128;33;19963;-38
2021/10/28 21:41:24;;;;;;;;;;;11.90;52.90;;;;;;4327071;33;19974;-41
2021/10/28 21:43:51;;;;;;;;;;;12.00;53.60;;;;;;4326933;33;19971;-41
2021/10/28 21:46:18;;;;;;;;;;;12.00;52.90;;;;;;4315044;33;20404;-41
2021/10/28 21:48:47;;;;;;;;;;;12.00;52.80;;;;;;4326675;33;19973;-41
2021/10/28 21:51:14;;;;;;;;;;;12.00;52.70;;;;;;4332380;32;20017;-41
2021/10/28 21:53:41;;;;;;;;;;;12.10;52.80;;;;;;4356317;32;19963;-42
2021/10/28 21:56:18;;;;;;;;;;;12.10;52.70;;;;;;4356376;32;19971;-44
2021/10/28 22:07:12;;;;;;;;;;;12.20;52.60;;;;;;4347019;32;19966;-45
2021/10/28 22:26:07;;;;;;;;;;;12.20;52.70;;;;;;4373290;32;19966;-41
2021/10/28 22:28:33;;;;;;;;;;;12.20;52.70;;;;;;4359770;32;20054;-41
2021/10/28 22:31:00;;;;;;;;;;;12.20;52.70;;;;;;4373492;32;20021;-40
2021/10/28 22:33:26;;;;;;;;;;;12.20;52.90;;;;;;4373533;32;19997;-40
2021/10/28 22:36:02;;;;;;;;;;;12.10;52.90;;;;;;4373723;32;20398;-39
2021/10/28 22:38:32;;;;;;;;;;;12.10;53.10;;;;;;4373496;32;20415;-39
2021/10/28 22:40:58;;;;;;;;;;;12.10;53.30;;;;;;4340904;33;19989;-39
2021/10/28 22:43:24;;;;;;;;;;;12.10;53.40;;;;;;4328716;33;19992;-40
2021/10/28 22:45:50;;;;;;;;;;;12.20;53.40;;;;;;4347694;32;19962;-39
2021/10/28 22:48:18;;;;;;;;;;;12.20;53.30;;;;;;4356053;32;19962;-38
2021/10/28 22:50:44;;;;;;;;;;;12.30;53.10;;;;;;4356149;32;19962;-38
2021/10/28 22:53:11;;;;;;;;;;;12.30;53.10;;;;;;4343742;32;20006;-38
2021/10/28 22:55:42;;;;;;;;;;;12.30;53.00;;;;;;4356373;32;20461;-38
2021/10/28 22:58:30;;;;;;;;;;;12.30;52.90;;;;;;4355738;32;19970;-37
2021/10/28 23:01:04;;;;;;;;;;;12.20;52.90;;;;;;4355983;32;19966;-36
2021/10/28 23:10:14;;;;;;;;;;;12.10;53.40;;;;;;4355661;32;20399;-37
2021/10/28 23:12:03;;;;;;;;;;;12.10;53.40;;;;;;4353080;32;20017;-37
2021/10/28 23:14:46;;;;;;;;;;;12.10;53.50;;;;;;4344926;32;19974;-39
2021/10/28 23:22:42;;;;;;;;;;;12.10;53.80;;;;;;4373058;32;19982;-38
2021/10/28 23:25:08;;;;;;;;;;;12.00;53.80;;;;;;4373899;32;20362;-37
2021/10/28 23:27:34;;;;;;;;;;;12.00;53.80;;;;;;4375867;32;20335;-37
2021/10/28 23:30:01;;;;;;;;;;;12.00;54.00;;;;;;4376048;32;19985;-37
2021/10/28 23:32:27;;;;;;;;;;;12.00;54.00;;;;;;4362118;32;19966;-38
2021/10/28 23:34:53;;;;;;;;;;;11.90;54.10;;;;;;4375744;32;20350;-36
2021/10/28 23:37:19;;;;;;;;;;;12.00;54.30;;;;;;4375810;32;20054;-36